createdAt,value
2023-01-27T00:01:42.743Z,102225.78
2023-01-27T00:03:46.127Z,102218.88
2023-01-27T00:05:49.585Z,102223.19
2023-01-27T00:07:52.758Z,102227.47
2023-01-27T00:09:57.424Z,102232.66
2023-01-27T00:12:17.899Z,102226.59
2023-01-27T00:14:21.082Z,102226.59
2023-01-27T00:16:24.433Z,102218.00
2023-01-27T00:18:27.698Z,102222.31
2023-01-27T00:20:48.409Z,102223.19
2023-01-27T00:23:14.400Z,102224.06
2023-01-27T00:25:19.504Z,102230.97
2023-01-27T00:27:22.757Z,102226.66
2023-01-27T00:29:26.087Z,102240.47
2023-01-27T00:31:46.976Z,102239.59
2023-01-27T00:33:53.905Z,102238.75
2023-01-27T00:36:05.839Z,102244.78
2023-01-27T00:38:09.181Z,102240.44
2023-01-27T00:40:13.729Z,102246.47
2023-01-27T00:42:18.714Z,102243.03
2023-01-27T00:44:23.866Z,102245.63
2023-01-27T00:46:27.183Z,102241.31
2023-01-27T00:48:30.486Z,102236.97
2023-01-27T00:50:33.708Z,102249.97
2023-01-27T00:52:36.728Z,102248.25
2023-01-27T00:54:39.761Z,102255.16
2023-01-27T00:56:42.939Z,102256.03
2023-01-27T00:58:47.311Z,102254.28
2023-01-27T01:00:50.307Z,102258.63
2023-01-27T01:02:53.524Z,102260.34
2023-01-27T01:04:57.246Z,102259.47
2023-01-27T01:07:00.286Z,102258.59
2023-01-27T01:09:03.283Z,102266.34
2023-01-27T01:11:07.455Z,102259.41
2023-01-27T01:13:11.872Z,102263.72
2023-01-27T01:15:16.479Z,102262.00
2023-01-27T01:17:20.526Z,102273.22
2023-01-27T01:19:24.294Z,102270.63
2023-01-27T01:21:27.545Z,102271.47
2023-01-27T01:23:30.744Z,102274.06
2023-01-27T01:25:34.199Z,102278.38
2023-01-27T01:27:37.959Z,102278.38
2023-01-27T01:29:41.482Z,102282.69
2023-01-27T01:31:45.990Z,102284.41
2023-01-27T01:33:49.688Z,102282.69
2023-01-27T01:35:53.641Z,102279.25
2023-01-27T01:37:56.670Z,102287.03
2023-01-27T01:40:00.060Z,102284.44
2023-01-27T01:42:03.198Z,102281.81
2023-01-27T01:44:23.133Z,102282.69
2023-01-27T01:46:26.344Z,102283.56
2023-01-27T01:48:48.035Z,102286.16
2023-01-27T01:50:55.961Z,102288.75
2023-01-27T01:53:01.242Z,102295.66
2023-01-27T01:55:04.988Z,102293.94
2023-01-27T01:57:11.679Z,102294.81
2023-01-27T01:59:18.645Z,102286.19
2023-01-27T02:01:21.832Z,102305.22
2023-01-27T02:03:25.713Z,102293.13
2023-01-27T02:05:35.875Z,102296.59
2023-01-27T02:07:45.751Z,102301.78
2023-01-27T02:09:48.943Z,102303.53
2023-01-27T02:11:52.501Z,102307.03
2023-01-27T02:13:55.653Z,102298.41
2023-01-27T02:15:58.751Z,102307.91
2023-01-27T02:18:02.751Z,102305.34
2023-01-27T02:20:10.704Z,102303.63
2023-01-27T02:22:25.648Z,102301.06
2023-01-27T02:24:39.279Z,102314.00
2023-01-27T02:26:45.234Z,102308.81
2023-01-27T02:28:55.180Z,102317.47
2023-01-27T02:30:59.013Z,102315.75
2023-01-27T02:33:02.141Z,102314.88
2023-01-27T02:35:09.461Z,102310.56
2023-01-27T02:37:13.060Z,102318.34
2023-01-27T02:39:19.861Z,102323.53
2023-01-27T02:41:28.927Z,102315.75
2023-01-27T02:43:33.494Z,102320.94
2023-01-27T02:45:36.538Z,102330.44
2023-01-27T02:47:39.652Z,102322.69
2023-01-27T02:49:42.977Z,102327.03
2023-01-27T02:51:46.136Z,102319.28
2023-01-27T02:53:49.361Z,102332.28
2023-01-27T02:55:52.429Z,102327.97
2023-01-27T02:57:55.473Z,102338.34
2023-01-27T03:00:19.646Z,102341.81
2023-01-27T03:02:30.374Z,102334.91
2023-01-27T03:04:33.442Z,102342.69
2023-01-27T03:06:36.511Z,102353.94
2023-01-27T03:08:39.602Z,102350.50
2023-01-27T03:10:42.644Z,102342.75
2023-01-27T03:12:45.878Z,102345.34
2023-01-27T03:15:08.176Z,102339.31
2023-01-27T03:17:30.484Z,102341.06
2023-01-27T03:19:33.630Z,102350.56
2023-01-27T03:21:37.032Z,102355.75
2023-01-27T03:23:40.096Z,102348.84
2023-01-27T03:25:44.089Z,102359.22
2023-01-27T03:27:47.797Z,102359.22
2023-01-27T03:30:05.566Z,102368.75
2023-01-27T03:32:08.641Z,102367.03
2023-01-27T03:34:13.235Z,102362.69
2023-01-27T03:36:45.934Z,102367.03
2023-01-27T03:39:06.817Z,102373.09
2023-01-27T03:41:30.743Z,102380.88
2023-01-27T03:43:51.081Z,102385.22
2023-01-27T03:46:11.546Z,102386.06
2023-01-27T03:48:17.310Z,102390.41
2023-01-27T03:50:31.159Z,102390.41
2023-01-27T03:52:34.407Z,102395.59
2023-01-27T03:54:38.379Z,102395.59
2023-01-27T03:56:41.531Z,102393.03
2023-01-27T03:58:45.238Z,102400.78
2023-01-27T04:00:51.668Z,102390.44
2023-01-27T04:03:11.952Z,102400.78
2023-01-27T04:05:32.993Z,102389.59
2023-01-27T04:07:37.801Z,102388.75
2023-01-27T04:09:41.087Z,102395.69
2023-01-27T04:11:55.269Z,102393.09
2023-01-27T04:14:02.026Z,102398.25
2023-01-27T04:16:05.433Z,102401.72
2023-01-27T04:18:08.492Z,102400.84
2023-01-27T04:20:12.792Z,102406.03
2023-01-27T04:22:17.401Z,102398.25
2023-01-27T04:24:24.684Z,102406.06
2023-01-27T04:26:33.093Z,102402.59
2023-01-27T04:28:44.171Z,102405.19
2023-01-27T04:30:47.577Z,102405.19
2023-01-27T04:32:50.826Z,102402.56
2023-01-27T04:34:54.190Z,102406.03
2023-01-27T04:36:57.722Z,102406.91
2023-01-27T04:39:00.840Z,102406.91
2023-01-27T04:41:05.469Z,102415.56
2023-01-27T04:43:08.490Z,102416.44
2023-01-27T04:45:12.294Z,102412.13
2023-01-27T04:47:15.623Z,102419.91
2023-01-27T04:49:19.148Z,102418.19
2023-01-27T04:51:22.338Z,102423.38
2023-01-27T04:53:25.403Z,102421.66
2023-01-27T04:55:28.751Z,102425.97
2023-01-27T04:57:33.230Z,102424.25
2023-01-27T04:59:36.275Z,102425.97
2023-01-27T05:01:39.620Z,102426.84
2023-01-27T05:03:42.634Z,102438.91
2023-01-27T05:05:45.656Z,102442.38
2023-01-27T05:07:48.738Z,102445.84
2023-01-27T05:09:51.760Z,102446.72
2023-01-27T05:11:54.817Z,102451.03
2023-01-27T05:13:59.269Z,102449.31
2023-01-27T05:16:07.176Z,102452.78
2023-01-27T05:18:10.312Z,102454.53
2023-01-27T05:20:13.779Z,102456.25
2023-01-27T05:22:16.863Z,102453.69
2023-01-27T05:24:19.984Z,102445.06
2023-01-27T05:26:24.801Z,102439.03
2023-01-27T05:28:28.415Z,102438.19
2023-01-27T05:30:34.946Z,102433.94
2023-01-27T05:32:37.952Z,102438.28
2023-01-27T05:34:40.953Z,102444.34
2023-01-27T05:36:44.046Z,102445.22
2023-01-27T05:38:47.301Z,102448.69
2023-01-27T05:40:50.323Z,102442.66
2023-01-27T05:42:53.573Z,102440.94
2023-01-27T05:44:56.744Z,102435.78
2023-01-27T05:47:01.123Z,102443.56
2023-01-27T05:49:05.548Z,102443.63
2023-01-27T05:51:08.907Z,102444.50
2023-01-27T05:53:12.143Z,102449.69
2023-01-27T05:55:15.771Z,102462.66
2023-01-27T05:57:18.902Z,102466.97
2023-01-27T05:59:21.902Z,102466.13
2023-01-27T06:01:26.703Z,102476.47
2023-01-27T06:03:31.154Z,102468.72
2023-01-27T06:05:34.111Z,102477.34
2023-01-27T06:07:37.124Z,102477.34
2023-01-27T06:09:40.324Z,102484.25
2023-01-27T06:11:43.344Z,102481.69
2023-01-27T06:13:46.683Z,102485.13
2023-01-27T06:15:50.456Z,102482.53
2023-01-27T06:17:53.542Z,102486.00
2023-01-27T06:19:57.939Z,102479.97
2023-01-27T06:22:01.965Z,102480.84
2023-01-27T06:24:05.586Z,102488.63
2023-01-27T06:26:11.024Z,102497.25
2023-01-27T06:28:28.116Z,102493.78
2023-01-27T06:30:32.397Z,102503.28
2023-01-27T06:32:37.246Z,102503.28
2023-01-27T06:34:41.848Z,102509.31
2023-01-27T06:36:47.597Z,102504.16
2023-01-27T06:38:51.273Z,102512.78
2023-01-27T06:40:55.339Z,102519.66
2023-01-27T06:42:58.348Z,102518.81
2023-01-27T06:45:01.358Z,102518.81
2023-01-27T06:47:04.737Z,102530.03
2023-01-27T06:49:08.090Z,102520.53
2023-01-27T06:51:11.102Z,102529.16
2023-01-27T06:53:15.623Z,102530.88
2023-01-27T06:55:19.391Z,102535.22
2023-01-27T06:57:22.415Z,102543.00
2023-01-27T06:59:25.440Z,102543.00
2023-01-27T07:01:28.696Z,102539.56
2023-01-27T07:03:31.747Z,102546.47
2023-01-27T07:05:35.380Z,102548.22
2023-01-27T07:07:38.696Z,102558.63
2023-01-27T07:09:52.071Z,102563.78
2023-01-27T07:11:55.881Z,102565.53
2023-01-27T07:13:58.902Z,102566.41
2023-01-27T07:16:01.967Z,102579.34
2023-01-27T07:18:05.762Z,102580.22
2023-01-27T07:20:13.435Z,102584.53
2023-01-27T07:22:16.586Z,102582.78
2023-01-27T07:24:20.216Z,102585.38
2023-01-27T07:26:25.353Z,102583.66
2023-01-27T07:28:28.424Z,102587.97
2023-01-27T07:30:33.877Z,102586.22
2023-01-27T07:32:36.945Z,102593.13
2023-01-27T07:34:39.993Z,102594.84
2023-01-27T07:36:43.029Z,102593.09
2023-01-27T07:38:46.087Z,102591.34
2023-01-27T07:40:49.355Z,102599.97
2023-01-27T07:42:53.779Z,102599.97
2023-01-27T07:44:56.761Z,102601.69
2023-01-27T07:47:00.490Z,102603.41
2023-01-27T07:49:03.619Z,102607.72
2023-01-27T07:51:06.816Z,102604.28
2023-01-27T07:53:11.752Z,102605.13
2023-01-27T07:55:15.010Z,102605.13
2023-01-27T07:57:18.264Z,102602.56
2023-01-27T07:59:22.866Z,102600.84
2023-01-27T08:01:26.069Z,102601.69
2023-01-27T08:03:29.182Z,102600.84
2023-01-27T08:05:34.956Z,102614.63
2023-01-27T08:07:38.055Z,102609.47
2023-01-27T08:09:41.052Z,102611.19
2023-01-27T08:11:44.084Z,102615.50
2023-01-27T08:13:47.237Z,102619.81
2023-01-27T08:15:57.087Z,102606.00
2023-01-27T08:18:01.796Z,102622.38
2023-01-27T08:20:05.783Z,102618.06
2023-01-27T08:22:08.750Z,102620.66
2023-01-27T08:24:12.923Z,102624.09
2023-01-27T08:26:16.018Z,102618.91
2023-01-27T08:28:19.722Z,102616.31
2023-01-27T08:30:23.852Z,102626.66
2023-01-27T08:32:28.395Z,102624.06
2023-01-27T08:34:31.688Z,102631.84
2023-01-27T08:36:34.738Z,102636.13
2023-01-27T08:38:38.714Z,102634.38
2023-01-27T08:40:42.356Z,102633.50
2023-01-27T08:42:45.550Z,102635.22
2023-01-27T08:44:48.657Z,102633.47
2023-01-27T08:46:52.903Z,102630.91
2023-01-27T08:48:57.819Z,102634.34
2023-01-27T08:51:01.913Z,102638.63
2023-01-27T08:53:05.087Z,102636.91
2023-01-27T08:55:08.629Z,102635.19
2023-01-27T08:57:11.865Z,102635.19
2023-01-27T08:59:15.079Z,102630.00
2023-01-27T09:01:18.152Z,102636.06
2023-01-27T09:03:21.305Z,102639.53
2023-01-27T09:05:25.854Z,102644.69
2023-01-27T09:07:28.877Z,102641.22
2023-01-27T09:09:31.866Z,102642.94
2023-01-27T09:11:34.849Z,102644.66
2023-01-27T09:13:37.858Z,102653.28
2023-01-27T09:15:40.969Z,102658.47
2023-01-27T09:17:44.025Z,102663.66
2023-01-27T09:19:47.120Z,102674.00
2023-01-27T09:21:51.627Z,102674.00
2023-01-27T09:23:54.834Z,102678.28
2023-01-27T09:25:57.841Z,102682.63
2023-01-27T09:28:01.443Z,102678.31
2023-01-27T09:30:04.984Z,102686.06
2023-01-27T09:32:09.339Z,102675.69
2023-01-27T09:34:12.544Z,102677.41
2023-01-27T09:36:20.237Z,102681.72
2023-01-27T09:38:27.508Z,102678.28
2023-01-27T09:40:33.303Z,102678.28
2023-01-27T09:42:54.102Z,102682.63
2023-01-27T09:45:21.823Z,102672.28
2023-01-27T09:47:38.171Z,102669.69
2023-01-27T09:49:55.312Z,102680.06
2023-01-27T09:52:11.577Z,102680.88
2023-01-27T09:54:52.132Z,102673.09
2023-01-27T09:57:07.477Z,102672.22
2023-01-27T09:59:25.823Z,102668.75
2023-01-27T10:01:39.001Z,102675.66
2023-01-27T10:04:10.691Z,102673.06
2023-01-27T10:06:34.969Z,102676.50
2023-01-27T10:09:01.418Z,102679.09
2023-01-27T10:11:17.064Z,102681.69
2023-01-27T10:13:31.148Z,102677.38
2023-01-27T10:15:49.018Z,102673.94
2023-01-27T10:18:02.063Z,102672.22
2023-01-27T10:20:21.096Z,102674.81
2023-01-27T10:22:34.910Z,102669.66
2023-01-27T10:24:51.124Z,102677.47
2023-01-27T10:27:00.788Z,102674.88
2023-01-27T10:29:10.805Z,102673.16
2023-01-27T10:31:18.866Z,102674.91
2023-01-27T10:33:23.583Z,102675.78
2023-01-27T10:35:32.734Z,102687.88
2023-01-27T10:37:46.214Z,102674.06
2023-01-27T10:39:58.480Z,102672.34
2023-01-27T10:42:10.552Z,102668.91
2023-01-27T10:44:34.005Z,102674.94
2023-01-27T10:46:48.212Z,102668.91
2023-01-27T10:48:56.050Z,102674.09
2023-01-27T10:51:02.951Z,102675.00
2023-01-27T10:53:13.195Z,102671.53
2023-01-27T10:55:21.826Z,102671.53
2023-01-27T10:57:32.233Z,102665.47
2023-01-27T10:59:52.241Z,102665.47
2023-01-27T11:02:11.536Z,102662.00
2023-01-27T11:04:19.928Z,102664.59
2023-01-27T11:06:25.952Z,102663.72
2023-01-27T11:08:32.543Z,102665.47
2023-01-27T11:11:03.243Z,102661.13
2023-01-27T11:13:10.842Z,102667.19
2023-01-27T11:15:21.313Z,102657.69
2023-01-27T11:17:31.220Z,102661.13
2023-01-27T11:19:44.238Z,102665.44
2023-01-27T11:22:01.645Z,102661.13
2023-01-27T11:24:22.492Z,102661.97
2023-01-27T11:26:33.218Z,102661.09
2023-01-27T11:28:43.649Z,102653.31
2023-01-27T11:30:53.740Z,102657.63
2023-01-27T11:33:03.702Z,102654.19
2023-01-27T11:35:14.474Z,102661.06
2023-01-27T11:37:21.036Z,102655.03
2023-01-27T11:39:24.616Z,102656.75
2023-01-27T11:41:27.631Z,102651.56
2023-01-27T11:43:30.798Z,102656.75
2023-01-27T11:45:38.179Z,102653.28
2023-01-27T11:47:42.997Z,102658.47
2023-01-27T11:49:49.768Z,102657.63
2023-01-27T11:51:53.109Z,102652.41
2023-01-27T11:54:04.266Z,102654.09
2023-01-27T11:56:10.931Z,102651.50
2023-01-27T11:58:20.528Z,102656.66
2023-01-27T12:00:27.231Z,102656.66
2023-01-27T12:02:36.733Z,102658.38
2023-01-27T12:04:51.709Z,102654.06
2023-01-27T12:06:57.884Z,102656.69
2023-01-27T12:09:00.955Z,102648.97
2023-01-27T12:11:19.074Z,102654.97
2023-01-27T12:13:26.480Z,102646.38
2023-01-27T12:15:32.779Z,102638.59
2023-01-27T12:17:41.799Z,102639.47
2023-01-27T12:19:44.876Z,102637.75
2023-01-27T12:21:51.195Z,102632.56
2023-01-27T12:23:57.448Z,102627.41
2023-01-27T12:26:02.891Z,102626.53
2023-01-27T12:28:06.196Z,102634.28
2023-01-27T12:30:21.744Z,102629.09
2023-01-27T12:32:35.105Z,102629.97
2023-01-27T12:34:40.160Z,102626.50
2023-01-27T12:36:45.301Z,102629.09
2023-01-27T12:38:52.843Z,102638.59
2023-01-27T12:41:01.042Z,102636.88
2023-01-27T12:43:11.812Z,102640.34
2023-01-27T12:45:24.474Z,102642.06
2023-01-27T12:47:28.821Z,102640.34
2023-01-27T12:49:34.789Z,102642.94
2023-01-27T12:51:41.796Z,102644.69
2023-01-27T12:53:44.895Z,102648.16
2023-01-27T12:55:52.677Z,102642.09
2023-01-27T12:57:55.820Z,102642.97
2023-01-27T12:59:59.784Z,102641.22
2023-01-27T13:02:16.274Z,102642.94
2023-01-27T13:04:22.513Z,102637.75
2023-01-27T13:06:34.986Z,102637.75
2023-01-27T13:08:41.550Z,102642.94
2023-01-27T13:10:51.564Z,102634.28
2023-01-27T13:12:56.913Z,102629.09
2023-01-27T13:15:07.491Z,102634.28
2023-01-27T13:17:36.903Z,102630.81
2023-01-27T13:19:44.900Z,102628.25
2023-01-27T13:21:51.313Z,102625.66
2023-01-27T13:23:57.129Z,102626.50
2023-01-27T13:26:11.386Z,102621.34
2023-01-27T13:28:22.038Z,102622.22
2023-01-27T13:30:29.841Z,102623.06
2023-01-27T13:32:36.136Z,102627.38
2023-01-27T13:34:44.012Z,102625.63
2023-01-27T13:36:53.065Z,102625.63
2023-01-27T13:39:02.600Z,102627.38
2023-01-27T13:41:09.385Z,102622.22
2023-01-27T13:43:20.026Z,102627.41
2023-01-27T13:45:28.148Z,102630.88
2023-01-27T13:47:41.260Z,102627.41
2023-01-27T13:49:47.759Z,102626.56
2023-01-27T13:51:50.827Z,102622.25
2023-01-27T13:54:01.065Z,102619.66
2023-01-27T13:56:22.582Z,102615.34
2023-01-27T13:58:39.321Z,102614.47
2023-01-27T14:00:57.013Z,102610.16
2023-01-27T14:03:32.552Z,102619.66
2023-01-27T14:05:48.605Z,102623.09
2023-01-27T14:07:59.604Z,102616.22
2023-01-27T14:10:17.362Z,102611.91
2023-01-27T14:12:35.377Z,102614.47
2023-01-27T14:14:58.164Z,102618.78
2023-01-27T14:17:15.839Z,102617.06
2023-01-27T14:19:31.166Z,102617.03
2023-01-27T14:21:45.125Z,102622.22
2023-01-27T14:24:02.801Z,102622.22
2023-01-27T14:26:18.880Z,102625.66
2023-01-27T14:28:32.163Z,102619.63
2023-01-27T14:30:41.199Z,102621.38
2023-01-27T14:32:52.652Z,102617.91
2023-01-27T14:35:15.631Z,102614.41
2023-01-27T14:37:28.099Z,102618.63
2023-01-27T14:39:38.628Z,102612.44
2023-01-27T14:41:50.444Z,102614.97
2023-01-27T14:44:02.420Z,102620.97
2023-01-27T14:46:14.852Z,102627.00
2023-01-27T14:48:48.243Z,102623.53
2023-01-27T14:51:00.668Z,102624.47
2023-01-27T14:53:18.133Z,102627.13
2023-01-27T14:55:33.031Z,102632.41
2023-01-27T14:57:48.526Z,102636.78
2023-01-27T15:00:02.908Z,102635.09
2023-01-27T15:02:22.457Z,102631.72
2023-01-27T15:04:38.163Z,102630.03
2023-01-27T15:06:47.348Z,102636.09
2023-01-27T15:08:59.928Z,102639.56
2023-01-27T15:11:23.881Z,102645.66
2023-01-27T15:13:50.562Z,102643.09
2023-01-27T15:16:13.617Z,102640.50
2023-01-27T15:18:37.745Z,102638.78
2023-01-27T15:21:03.318Z,102643.09
2023-01-27T15:23:20.389Z,102645.69
2023-01-27T15:25:33.551Z,102646.59
2023-01-27T15:27:36.972Z,102649.22
2023-01-27T15:29:41.851Z,102645.78
2023-01-27T15:31:44.996Z,102652.72
2023-01-27T15:33:53.668Z,102648.41
2023-01-27T15:36:17.956Z,102658.81
2023-01-27T15:38:32.933Z,102656.22
2023-01-27T15:41:07.959Z,102662.25
2023-01-27T15:43:16.497Z,102655.38
2023-01-27T15:45:30.296Z,102657.13
2023-01-27T15:47:35.497Z,102662.28
2023-01-27T15:49:43.408Z,102663.16
2023-01-27T15:51:47.013Z,102675.22
2023-01-27T15:53:53.162Z,102670.06
2023-01-27T15:55:58.548Z,102676.09
2023-01-27T15:58:08.474Z,102676.09
2023-01-27T16:00:28.532Z,102681.25
2023-01-27T16:02:34.110Z,102685.56
2023-01-27T16:04:37.184Z,102684.69
2023-01-27T16:06:47.781Z,102687.28
2023-01-27T16:08:53.358Z,102688.16
2023-01-27T16:11:23.107Z,102687.31
2023-01-27T16:13:28.857Z,102693.34
2023-01-27T16:15:38.421Z,102693.34
2023-01-27T16:18:24.005Z,102687.31
2023-01-27T16:20:30.313Z,102691.63
2023-01-27T16:22:36.576Z,102688.19
2023-01-27T16:24:44.064Z,102695.06
2023-01-27T16:26:51.477Z,102688.19
2023-01-27T16:29:17.088Z,102705.41
2023-01-27T16:31:24.281Z,102698.50
2023-01-27T16:33:33.952Z,102703.69
2023-01-27T16:35:44.198Z,102699.38
2023-01-27T16:38:02.020Z,102699.38
2023-01-27T16:40:09.347Z,102707.13
2023-01-27T16:42:15.995Z,102705.38
2023-01-27T16:44:22.428Z,102704.53
2023-01-27T16:46:34.055Z,102707.09
2023-01-27T16:48:43.431Z,102707.09
2023-01-27T16:50:46.484Z,102708.81
2023-01-27T16:52:49.881Z,102713.13
2023-01-27T16:54:55.539Z,102714.00
2023-01-27T16:56:59.206Z,102720.88
2023-01-27T16:59:05.470Z,102718.31
2023-01-27T17:01:16.959Z,102724.34
2023-01-27T17:03:26.165Z,102724.34
2023-01-27T17:05:30.695Z,102720.91
2023-01-27T17:07:34.685Z,102723.47
2023-01-27T17:09:42.258Z,102726.03
2023-01-27T17:11:46.104Z,102728.63
2023-01-27T17:13:53.848Z,102730.34
2023-01-27T17:15:59.756Z,102734.66
2023-01-27T17:18:05.657Z,102729.50
2023-01-27T17:20:10.314Z,102728.63
2023-01-27T17:22:23.464Z,102727.75
2023-01-27T17:24:30.911Z,102729.50
2023-01-27T17:26:36.374Z,102730.34
2023-01-27T17:28:40.356Z,102729.50
2023-01-27T17:30:46.810Z,102729.50
2023-01-27T17:32:54.082Z,102733.81
2023-01-27T17:34:59.950Z,102727.78
2023-01-27T17:37:07.180Z,102731.22
2023-01-27T17:39:25.521Z,102736.38
2023-01-27T17:41:35.958Z,102732.09
2023-01-27T17:43:40.396Z,102735.53
2023-01-27T17:46:04.252Z,102726.91
2023-01-27T17:48:11.654Z,102733.81
2023-01-27T17:50:18.559Z,102721.75
2023-01-27T17:52:24.259Z,102729.50
2023-01-27T17:54:31.147Z,102727.75
2023-01-27T17:56:35.740Z,102732.94
2023-01-27T17:58:39.117Z,102737.25
2023-01-27T18:00:46.201Z,102736.38
2023-01-27T18:02:52.810Z,102733.78
2023-01-27T18:04:59.963Z,102743.28
2023-01-27T18:07:03.081Z,102748.44
2023-01-27T18:09:18.698Z,102745.00
2023-01-27T18:11:31.965Z,102745.00
2023-01-27T18:13:37.777Z,102750.19
2023-01-27T18:15:42.717Z,102741.56
2023-01-27T18:17:58.481Z,102744.16
2023-01-27T18:20:02.144Z,102750.19
2023-01-27T18:22:12.908Z,102746.75
2023-01-27T18:24:29.352Z,102749.31
2023-01-27T18:26:42.770Z,102745.03
2023-01-27T18:28:47.047Z,102746.75
2023-01-27T18:30:51.841Z,102742.44
2023-01-27T18:33:02.452Z,102752.78
2023-01-27T18:35:22.829Z,102744.16
2023-01-27T18:37:29.565Z,102756.22
2023-01-27T18:39:37.510Z,102751.03
2023-01-27T18:41:47.740Z,102753.63
2023-01-27T18:43:50.823Z,102757.09
2023-01-27T18:45:53.862Z,102757.09
2023-01-27T18:47:57.485Z,102760.53
2023-01-27T18:50:03.417Z,102750.19
2023-01-27T18:52:11.527Z,102751.91
2023-01-27T18:54:14.673Z,102751.91
2023-01-27T18:56:17.768Z,102752.78
2023-01-27T18:58:22.337Z,102750.19
2023-01-27T19:00:26.909Z,102760.53
2023-01-27T19:02:30.019Z,102761.41
2023-01-27T19:04:33.481Z,102763.13
2023-01-27T19:06:36.588Z,102758.81
2023-01-27T19:08:39.797Z,102760.53
2023-01-27T19:10:43.209Z,102757.94
2023-01-27T19:12:46.867Z,102762.25
2023-01-27T19:14:51.557Z,102757.94
2023-01-27T19:16:54.643Z,102763.13
2023-01-27T19:18:57.687Z,102769.16
2023-01-27T19:21:00.774Z,102760.53
2023-01-27T19:23:03.956Z,102768.31
2023-01-27T19:25:07.961Z,102769.16
2023-01-27T19:27:13.035Z,102765.72
2023-01-27T19:29:16.119Z,102759.69
2023-01-27T19:31:21.285Z,102757.13
2023-01-27T19:33:26.107Z,102754.53
2023-01-27T19:35:32.464Z,102756.25
2023-01-27T19:37:35.643Z,102755.38
2023-01-27T19:39:38.691Z,102757.97
2023-01-27T19:41:42.301Z,102752.78
2023-01-27T19:43:47.217Z,102756.25
2023-01-27T19:45:51.979Z,102761.41
2023-01-27T19:47:59.585Z,102758.81
2023-01-27T19:50:05.056Z,102765.72
2023-01-27T19:52:10.024Z,102766.59
2023-01-27T19:54:13.355Z,102760.53
2023-01-27T19:56:18.204Z,102753.66
2023-01-27T19:58:24.708Z,102749.34
2023-01-27T20:00:29.711Z,102753.66
2023-01-27T20:02:32.862Z,102756.25
2023-01-27T20:04:37.357Z,102755.38
2023-01-27T20:06:40.422Z,102749.34
2023-01-27T20:08:43.849Z,102765.69
2023-01-27T20:10:47.899Z,102759.66
2023-01-27T20:12:56.280Z,102757.06
2023-01-27T20:15:00.153Z,102750.16
2023-01-27T20:17:03.236Z,102750.16
2023-01-27T20:19:06.309Z,102760.50
2023-01-27T20:21:14.697Z,102751.91
2023-01-27T20:23:18.641Z,102753.63
2023-01-27T20:25:23.538Z,102745.88
2023-01-27T20:27:26.555Z,102752.75
2023-01-27T20:29:29.671Z,102738.97
2023-01-27T20:31:32.773Z,102747.59
2023-01-27T20:33:36.067Z,102738.97
2023-01-27T20:35:39.101Z,102743.25
2023-01-27T20:37:44.052Z,102744.97
2023-01-27T20:39:47.166Z,102738.06
2023-01-27T20:41:51.262Z,102744.97
2023-01-27T20:43:58.466Z,102737.19
2023-01-27T20:46:05.393Z,102733.75
2023-01-27T20:48:11.415Z,102736.34
2023-01-27T20:50:14.682Z,102741.50
2023-01-27T20:52:17.760Z,102736.31
2023-01-27T20:54:22.325Z,102741.47
2023-01-27T20:56:25.649Z,102726.81
2023-01-27T20:58:29.205Z,102734.56
2023-01-27T21:00:32.280Z,102734.56
2023-01-27T21:02:35.664Z,102738.00
2023-01-27T21:04:40.144Z,102740.56
2023-01-27T21:06:43.225Z,102740.56
2023-01-27T21:08:47.626Z,102744.84
2023-01-27T21:10:52.059Z,102744.84
2023-01-27T21:12:55.159Z,102741.41
2023-01-27T21:14:58.560Z,102731.94
2023-01-27T21:17:01.620Z,102742.28
2023-01-27T21:19:04.768Z,102735.38
2023-01-27T21:21:08.019Z,102744.84
2023-01-27T21:23:11.075Z,102740.53
2023-01-27T21:25:14.814Z,102736.22
2023-01-27T21:27:19.535Z,102741.41
2023-01-27T21:29:22.544Z,102748.28
2023-01-27T21:31:30.030Z,102741.41
2023-01-27T21:33:35.544Z,102742.25
2023-01-27T21:35:38.686Z,102747.44
2023-01-27T21:37:42.661Z,102743.97
2023-01-27T21:39:45.720Z,102751.72
2023-01-27T21:42:06.413Z,102754.31
2023-01-27T21:44:34.514Z,102743.13
2023-01-27T21:46:39.607Z,102755.19
2023-01-27T21:48:43.515Z,102749.16
2023-01-27T21:50:52.139Z,102741.41
2023-01-27T21:52:55.324Z,102743.13
2023-01-27T21:54:58.358Z,102739.69
2023-01-27T21:57:01.614Z,102741.44
2023-01-27T21:59:04.837Z,102739.72
2023-01-27T22:01:11.168Z,102741.47
2023-01-27T22:03:14.602Z,102736.31
2023-01-27T22:05:18.064Z,102723.41
2023-01-27T22:07:26.299Z,102715.66
2023-01-27T22:09:50.031Z,102721.69
2023-01-27T22:11:53.113Z,102719.13
2023-01-27T22:13:56.124Z,102720.84
2023-01-27T22:15:59.175Z,102725.13
2023-01-27T22:18:03.597Z,102732.88
2023-01-27T22:20:07.740Z,102734.59
2023-01-27T22:22:13.018Z,102740.63
2023-01-27T22:24:16.115Z,102736.31
2023-01-27T22:26:20.695Z,102733.75
2023-01-27T22:28:25.444Z,102738.91
2023-01-27T22:30:28.542Z,102738.03
2023-01-27T22:32:32.489Z,102746.69
2023-01-27T22:34:37.006Z,102744.94
2023-01-27T22:36:40.016Z,102743.22
2023-01-27T22:38:43.029Z,102740.63
2023-01-27T22:40:46.017Z,102744.94
2023-01-27T22:42:49.734Z,102741.50
2023-01-27T22:44:52.975Z,102743.22
2023-01-27T22:46:55.999Z,102745.81
2023-01-27T22:48:59.059Z,102743.22
2023-01-27T22:51:05.771Z,102744.94
2023-01-27T22:53:08.875Z,102740.66
2023-01-27T22:55:13.561Z,102740.66
2023-01-27T22:57:16.904Z,102742.38
2023-01-27T22:59:19.982Z,102741.53
2023-01-27T23:01:23.152Z,102735.50
2023-01-27T23:03:26.627Z,102740.66
2023-01-27T23:05:29.769Z,102738.06
2023-01-27T23:07:34.486Z,102741.53
2023-01-27T23:09:37.512Z,102728.59
2023-01-27T23:11:40.604Z,102726.88
2023-01-27T23:13:43.763Z,102733.75
2023-01-27T23:15:46.872Z,102727.75
2023-01-27T23:17:49.999Z,102731.19
2023-01-27T23:19:53.240Z,102724.31
2023-01-27T23:21:56.503Z,102726.03
2023-01-27T23:24:01.072Z,102722.56
2023-01-27T23:26:07.972Z,102725.16
2023-01-27T23:28:11.176Z,102732.03
2023-01-27T23:30:15.003Z,102722.53
2023-01-27T23:32:18.060Z,102723.44
2023-01-27T23:34:21.653Z,102726.88
2023-01-27T23:36:26.132Z,102717.41
2023-01-27T23:38:33.507Z,102719.09
2023-01-27T23:40:38.866Z,102720.81
2023-01-27T23:42:41.949Z,102724.25
2023-01-27T23:44:45.296Z,102719.94
2023-01-27T23:46:48.358Z,102715.63
2023-01-27T23:48:51.953Z,102710.47
2023-01-27T23:50:55.938Z,102710.44
2023-01-27T23:52:58.965Z,102711.31
2023-01-27T23:55:02.131Z,102717.31
2023-01-27T23:57:06.612Z,102716.44
2023-01-27T23:59:09.629Z,102715.59
